Granville, TN

12:08 PM CST on January 29, 2015 (GMT -0600)
KTNBUFFA2 | Change Station
CLOSE
Current Station
Personal Weather Station
Location: Buffalo Valley, TN
Elevation: 564 ft
Nearby Weather Stations

Elev 564 ft 36.13 °N, 85.79 °W | Updated 1 second ago

Clear
Clear
66.2 °F
Feels Like 66.2 °F
N
6.9
Wind Variable Wind from South
Gusts 10.7 mph

Today
High -- | Low -- °F
--% Chance of Precip.
Yesterday
High -- | Low -- °F
Precip. -- in
6:46 AM 5:06 PM
Waxing Gibbous, 76% visible
Pressure 30.03 in
Visibility 10.0 miles
Clouds Clear
Dew Point 12 °F
Humidity 12%
Rainfall 0.04 in
Snow Depth Not available.
UV 4 out of 12
Pollen 2.20 out of 12
Air Quality Not available.
Flu Activity Not available.
METAR KSRB 291755Z AUTO 23017KT 10SM CLR 14/03 A3003 RMK

More Conditions Fewer Conditions

Pressure 30.03 in
Visibility 10.0 miles
Clouds Clear
Dew Point 12 °F
Humidity 12%
Rainfall 0.04 in
Snow Depth Not available.
UV 4 out of 12
Pollen 2.20 out of 12
Air Quality Not available.
Flu Activity Not available.
METAR KSRB 291755Z AUTO 23017KT 10SM CLR 14/03 A3003 RMK

More Conditions Fewer Conditions

10-Day Weather Forecast

Almanac

Astronomy

Jan. 29, 2015 Rise Set
Actual Time
Civil Twilight
Nautical Twilight
Astronomical Twilight
Moon
Length of Visible Light
Length of Day
Tomorrow will be .
, % of the Moon is Illuminated

Today's Extremes

State Highs State Lows

Community

WunderPhotos

Upload Photos

1,791,505 photos uploaded!

WunderBlogs® & News

Nearby

Air Quality

  Air Quality AQ Index Pollutant
Not available.

Snow Depth

Station Depth Elevation

Earthquake Activity

City Distance Mag. Time & Date
Minimum magnitude displayed is 2.5.

Coastal Water Temperatures

Place Temperature

Nearby Weather Stations